createdAt,value
2018-07-08T00:01:37.829Z,2.37
2018-07-08T00:04:06.322Z,2.60
2018-07-08T00:06:34.796Z,2.33
2018-07-08T00:09:03.312Z,2.10
2018-07-08T00:11:31.834Z,2.30
2018-07-08T00:14:00.387Z,2.67
2018-07-08T00:16:28.859Z,2.37
2018-07-08T00:18:57.339Z,2.47
2018-07-08T00:21:25.941Z,2.67
2018-07-08T00:23:54.406Z,2.53
2018-07-08T00:26:22.974Z,2.67
2018-07-08T00:28:51.500Z,2.87
2018-07-08T00:31:19.953Z,3.00
2018-07-08T00:33:48.433Z,3.20
2018-07-08T00:36:16.920Z,2.93
2018-07-08T00:38:45.402Z,2.93
2018-07-08T00:41:13.960Z,3.00
2018-07-08T00:43:42.403Z,2.23
2018-07-08T00:46:10.942Z,2.80
2018-07-08T00:48:39.374Z,2.60
2018-07-08T00:51:07.841Z,2.57
2018-07-08T00:53:36.398Z,2.83
2018-07-08T00:56:05.003Z,3.50
2018-07-08T00:58:33.586Z,3.27
2018-07-08T01:01:02.255Z,2.70
2018-07-08T01:03:30.822Z,3.53
2018-07-08T01:05:59.325Z,2.90
2018-07-08T01:08:27.784Z,2.93
2018-07-08T01:10:56.272Z,3.27
2018-07-08T01:13:24.803Z,2.90
2018-07-08T01:15:53.336Z,3.27
2018-07-08T01:18:21.953Z,3.60
2018-07-08T01:20:50.524Z,3.80
2018-07-08T01:23:18.997Z,2.93
2018-07-08T01:25:58.787Z,2.87
2018-07-08T01:28:27.349Z,3.60
2018-07-08T01:30:55.905Z,3.33
2018-07-08T01:33:24.558Z,3.63
2018-07-08T01:35:53.012Z,3.57
2018-07-08T01:38:21.582Z,3.47
2018-07-08T01:40:50.018Z,3.80
2018-07-08T01:43:18.526Z,3.40
2018-07-08T01:45:47.091Z,3.73
2018-07-08T01:48:15.609Z,3.73
2018-07-08T01:50:44.157Z,3.60
2018-07-08T01:53:12.794Z,4.27
2018-07-08T01:55:41.352Z,3.87
2018-07-08T01:58:10.047Z,3.83
2018-07-08T02:00:38.523Z,3.40
2018-07-08T02:03:07.438Z,3.73
2018-07-08T02:05:36.118Z,4.13
2018-07-08T02:08:04.593Z,3.47
2018-07-08T02:10:33.057Z,3.20
2018-07-08T02:13:01.553Z,4.13
2018-07-08T02:15:30.035Z,4.70
2018-07-08T02:17:58.616Z,3.80
2018-07-08T02:20:27.059Z,3.60
2018-07-08T02:22:55.545Z,4.93
2018-07-08T02:25:24.022Z,5.13
2018-07-08T02:27:52.551Z,3.80
2018-07-08T02:30:21.013Z,3.80
2018-07-08T02:32:49.591Z,3.87
2018-07-08T02:35:18.073Z,3.23
2018-07-08T02:37:46.763Z,3.57
2018-07-08T02:40:15.337Z,3.50
2018-07-08T02:42:43.814Z,4.17
2018-07-08T02:45:13.173Z,4.13
2018-07-08T02:47:42.188Z,5.30
2018-07-08T02:50:10.853Z,5.07
2018-07-08T02:52:39.414Z,4.00
2018-07-08T02:55:07.953Z,4.97
2018-07-08T02:57:36.384Z,4.47
2018-07-08T03:00:05.577Z,5.03
2018-07-08T03:02:34.126Z,4.70
2018-07-08T03:05:02.553Z,4.13
2018-07-08T03:07:31.930Z,4.73
2018-07-08T03:10:00.403Z,5.20
2018-07-08T03:12:28.914Z,4.73
2018-07-08T03:14:57.471Z,5.63
2018-07-08T03:17:25.970Z,4.60
2018-07-08T03:19:54.521Z,5.70
2018-07-08T03:22:23.091Z,4.60
2018-07-08T03:24:51.714Z,5.10
2018-07-08T03:27:20.291Z,5.00
2018-07-08T03:29:48.723Z,6.03
2018-07-08T03:32:17.235Z,4.53
2018-07-08T03:34:45.679Z,4.57
2018-07-08T03:37:14.193Z,4.80
2018-07-08T03:39:43.129Z,5.27
2018-07-08T03:42:11.655Z,4.97
2018-07-08T03:44:40.168Z,5.47
2018-07-08T03:47:08.606Z,5.00
2018-07-08T03:49:37.137Z,5.37
2018-07-08T03:52:05.901Z,5.13
2018-07-08T03:54:34.392Z,5.20
2018-07-08T03:57:02.883Z,4.87
2018-07-08T03:59:31.768Z,4.90
2018-07-08T04:02:00.242Z,5.30
2018-07-08T04:04:28.688Z,4.43
2018-07-08T04:06:57.221Z,5.80
2018-07-08T04:09:25.682Z,5.80
2018-07-08T04:11:54.173Z,5.87
2018-07-08T04:14:22.624Z,5.90
2018-07-08T04:16:51.183Z,5.30
2018-07-08T04:19:19.713Z,6.37
2018-07-08T04:21:48.144Z,6.87
2018-07-08T04:24:16.588Z,6.17
2018-07-08T04:26:45.020Z,6.00
2018-07-08T04:29:13.557Z,5.67
2018-07-08T04:31:41.987Z,5.77
2018-07-08T04:34:10.517Z,6.10
2018-07-08T04:36:39.005Z,5.70
2018-07-08T04:39:08.315Z,5.33
2018-07-08T04:41:36.872Z,5.50
2018-07-08T04:44:05.396Z,6.33
2018-07-08T04:46:33.837Z,6.17
2018-07-08T04:49:02.333Z,6.13
2018-07-08T04:51:30.809Z,6.23
2018-07-08T04:53:59.300Z,6.13
2018-07-08T04:56:27.769Z,6.63
2018-07-08T04:58:56.233Z,6.67
2018-07-08T05:01:24.718Z,6.23
2018-07-08T05:03:53.240Z,6.47
2018-07-08T05:06:21.701Z,6.50
2018-07-08T05:08:50.132Z,6.53
2018-07-08T05:11:18.675Z,6.37
2018-07-08T05:13:47.349Z,6.53
2018-07-08T05:16:15.832Z,6.93
2018-07-08T05:18:44.256Z,6.60
2018-07-08T05:21:12.924Z,6.50
2018-07-08T05:23:41.446Z,5.80
2018-07-08T05:26:10.814Z,6.57
2018-07-08T05:28:39.372Z,6.60
2018-07-08T05:31:07.940Z,6.30
2018-07-08T05:33:36.417Z,6.40
2018-07-08T05:36:05.105Z,6.57
2018-07-08T05:38:33.596Z,6.30
2018-07-08T05:41:02.037Z,6.47
2018-07-08T05:43:30.589Z,6.60
2018-07-08T05:45:59.244Z,6.80
2018-07-08T05:48:27.728Z,6.10
2018-07-08T05:50:56.285Z,5.20
2018-07-08T05:53:24.787Z,6.33
2018-07-08T05:55:55.361Z,5.87
2018-07-08T05:58:23.801Z,5.50
2018-07-08T06:00:52.257Z,5.20
2018-07-08T06:03:20.769Z,5.80
2018-07-08T06:05:49.266Z,6.20
2018-07-08T06:08:17.729Z,5.30
2018-07-08T06:10:46.217Z,5.67
2018-07-08T06:13:14.716Z,5.63
2018-07-08T06:15:43.190Z,5.43
2018-07-08T06:18:11.743Z,5.37
2018-07-08T06:20:40.149Z,5.80
2018-07-08T06:23:08.632Z,4.67
2018-07-08T06:25:37.100Z,4.13
2018-07-08T06:28:06.108Z,4.23
2018-07-08T06:30:34.580Z,4.17
2018-07-08T06:33:03.052Z,4.00
2018-07-08T06:35:31.590Z,4.00
2018-07-08T06:38:00.139Z,4.53
2018-07-08T06:40:28.701Z,3.80
2018-07-08T06:42:57.224Z,3.50
2018-07-08T06:45:25.875Z,3.67
2018-07-08T06:47:54.375Z,2.87
2018-07-08T06:50:22.956Z,3.07
2018-07-08T06:52:51.358Z,3.47
2018-07-08T06:55:23.371Z,2.77
2018-07-08T06:57:51.845Z,2.60
2018-07-08T07:00:20.459Z,3.17
2018-07-08T07:02:49.031Z,3.90
2018-07-08T07:05:17.549Z,3.50
2018-07-08T07:07:46.099Z,3.47
2018-07-08T07:10:14.579Z,3.33
2018-07-08T07:12:43.030Z,3.73
2018-07-08T07:15:11.604Z,3.00
2018-07-08T07:17:40.142Z,3.80
2018-07-08T07:20:08.589Z,3.40
2018-07-08T07:22:38.023Z,2.83
2018-07-08T07:25:07.029Z,3.37
2018-07-08T07:27:35.507Z,3.00
2018-07-08T07:30:04.101Z,3.07
2018-07-08T07:32:32.563Z,3.30
2018-07-08T07:35:01.041Z,3.07
2018-07-08T07:37:29.585Z,2.97
2018-07-08T07:39:57.976Z,3.03
2018-07-08T07:42:26.541Z,2.63
2018-07-08T07:44:55.081Z,2.90
2018-07-08T07:47:23.561Z,2.90
2018-07-08T07:49:52.157Z,3.23
2018-07-08T07:52:20.715Z,2.60
2018-07-08T07:54:49.403Z,2.73
2018-07-08T07:57:18.437Z,2.53
2018-07-08T07:59:46.993Z,2.77
2018-07-08T08:02:17.612Z,3.03
2018-07-08T08:04:46.115Z,2.57
2018-07-08T08:07:14.701Z,3.10
2018-07-08T08:09:43.217Z,3.00
2018-07-08T08:12:11.768Z,2.90
2018-07-08T08:14:40.209Z,3.10
2018-07-08T08:17:08.718Z,2.40
2018-07-08T08:19:37.300Z,2.87
2018-07-08T08:22:05.860Z,3.00
2018-07-08T08:24:34.370Z,2.93
2018-07-08T08:27:02.824Z,2.93
2018-07-08T08:29:31.370Z,2.90
2018-07-08T08:31:59.875Z,2.23
2018-07-08T08:35:00.357Z,3.10
2018-07-08T08:37:30.182Z,2.90
2018-07-08T08:39:58.745Z,2.40
2018-07-08T08:42:27.231Z,3.43
2018-07-08T08:44:56.416Z,2.53
2018-07-08T08:47:25.411Z,2.20
2018-07-08T08:49:54.316Z,2.90
2018-07-08T08:52:22.802Z,2.10
2018-07-08T08:54:51.672Z,2.50
2018-07-08T08:57:20.197Z,1.70
2018-07-08T08:59:48.740Z,2.53
2018-07-08T09:02:17.229Z,2.20
2018-07-08T09:04:45.840Z,2.43
2018-07-08T09:07:16.355Z,2.47
2018-07-08T09:09:45.005Z,2.67
2018-07-08T09:12:13.714Z,2.30
2018-07-08T09:14:42.211Z,2.10
2018-07-08T09:17:11.139Z,2.30
2018-07-08T09:19:39.894Z,1.77
2018-07-08T09:22:09.132Z,1.90
2018-07-08T09:24:37.666Z,2.50
2018-07-08T09:27:06.301Z,2.60
2018-07-08T09:29:34.831Z,2.20
2018-07-08T09:32:03.299Z,2.73
2018-07-08T09:34:31.796Z,2.10
2018-07-08T09:37:00.378Z,2.00
2018-07-08T09:39:29.036Z,2.17
2018-07-08T09:41:57.589Z,2.20
2018-07-08T09:44:26.125Z,1.90
2018-07-08T09:46:54.602Z,1.73
2018-07-08T09:49:23.081Z,1.57
2018-07-08T09:51:51.774Z,2.20
2018-07-08T09:54:20.236Z,1.87
2018-07-08T09:56:48.692Z,1.87
2018-07-08T09:59:17.310Z,1.70
2018-07-08T10:01:47.707Z,1.90
2018-07-08T10:04:17.458Z,2.20
2018-07-08T10:06:46.810Z,1.87
2018-07-08T10:09:17.474Z,2.40
2018-07-08T10:11:45.968Z,2.03
2018-07-08T10:14:15.984Z,2.27
2018-07-08T10:16:45.087Z,2.30
2018-07-08T10:19:14.763Z,1.83
2018-07-08T10:21:43.273Z,1.97
2018-07-08T10:24:11.976Z,1.73
2018-07-08T10:26:40.471Z,1.60
2018-07-08T10:29:09.591Z,1.43
2018-07-08T10:31:48.910Z,1.87
2018-07-08T10:34:17.765Z,1.63
2018-07-08T10:36:46.470Z,2.30
2018-07-08T10:39:16.022Z,1.90
2018-07-08T10:41:44.485Z,2.10
2018-07-08T10:44:13.845Z,2.00
2018-07-08T10:46:42.960Z,1.40
2018-07-08T10:49:11.750Z,2.17
2018-07-08T10:51:42.353Z,1.60
2018-07-08T10:54:10.893Z,1.77
2018-07-08T10:56:39.371Z,1.30
2018-07-08T10:59:07.817Z,1.57
2018-07-08T11:01:36.388Z,2.40
2018-07-08T11:04:05.133Z,1.97
2018-07-08T11:06:33.704Z,1.93
2018-07-08T11:09:02.425Z,2.00
2018-07-08T11:11:30.971Z,1.97
2018-07-08T11:13:59.594Z,1.50
2018-07-08T11:16:28.089Z,1.73
2018-07-08T11:18:56.564Z,1.90
2018-07-08T11:21:25.067Z,2.17
2018-07-08T11:23:53.677Z,1.57
2018-07-08T11:26:22.215Z,1.80
2018-07-08T11:28:50.691Z,2.00
2018-07-08T11:31:19.220Z,1.90
2018-07-08T11:33:47.697Z,1.73
2018-07-08T11:36:16.253Z,1.60
2018-07-08T11:38:44.745Z,1.67
2018-07-08T11:41:13.393Z,1.83
2018-07-08T11:43:41.874Z,1.73
2018-07-08T11:46:10.477Z,1.60
2018-07-08T11:48:38.965Z,2.00
2018-07-08T11:51:07.668Z,1.70
2018-07-08T11:53:36.582Z,1.33
2018-07-08T11:56:05.050Z,2.03
2018-07-08T11:58:33.622Z,1.90
2018-07-08T12:01:02.169Z,1.93
2018-07-08T12:03:30.705Z,1.40
2018-07-08T12:05:59.286Z,1.90
2018-07-08T12:08:27.880Z,1.80
2018-07-08T12:10:56.443Z,2.07
2018-07-08T12:13:25.008Z,1.53
2018-07-08T12:15:53.590Z,1.60
2018-07-08T12:18:22.074Z,1.67
2018-07-08T12:20:50.504Z,2.13
2018-07-08T12:23:19.081Z,1.57
2018-07-08T12:25:47.809Z,1.50
2018-07-08T12:28:16.337Z,1.60
2018-07-08T12:30:44.893Z,1.43
2018-07-08T12:33:13.476Z,2.27
2018-07-08T12:35:42.077Z,1.93
2018-07-08T12:38:10.630Z,1.77
2018-07-08T12:40:39.233Z,1.70
2018-07-08T12:43:07.699Z,1.70
2018-07-08T12:45:36.167Z,1.93
2018-07-08T12:48:04.670Z,1.70
2018-07-08T12:50:33.136Z,1.30
2018-07-08T12:53:01.917Z,1.97
2018-07-08T12:55:30.428Z,1.93
2018-07-08T12:57:59.004Z,2.00
2018-07-08T13:00:27.585Z,1.70
2018-07-08T13:02:56.062Z,1.47
2018-07-08T13:05:24.481Z,2.00
2018-07-08T13:07:53.052Z,1.93
2018-07-08T13:10:21.604Z,1.80
2018-07-08T13:12:50.184Z,1.47
2018-07-08T13:15:18.774Z,1.90
2018-07-08T13:17:47.348Z,2.30
2018-07-08T13:20:15.786Z,1.93
2018-07-08T13:22:44.332Z,1.93
2018-07-08T13:25:12.909Z,1.77
2018-07-08T13:27:41.557Z,2.03
2018-07-08T13:30:10.069Z,2.00
2018-07-08T13:32:38.566Z,1.73
2018-07-08T13:35:07.087Z,1.83
2018-07-08T13:37:35.596Z,1.70
2018-07-08T13:40:04.298Z,1.60
2018-07-08T13:42:32.748Z,1.63
2018-07-08T13:45:01.298Z,1.90
2018-07-08T13:47:29.867Z,1.80
2018-07-08T13:49:58.312Z,2.00
2018-07-08T13:52:26.905Z,2.00
2018-07-08T13:54:55.414Z,2.00
2018-07-08T13:57:23.989Z,2.33
2018-07-08T13:59:52.563Z,1.93
2018-07-08T14:02:21.086Z,1.80
2018-07-08T14:04:49.817Z,1.83
2018-07-08T14:07:18.333Z,1.80
2018-07-08T14:09:46.909Z,1.47
2018-07-08T14:12:15.452Z,1.40
2018-07-08T14:14:44.108Z,1.87
2018-07-08T14:17:12.646Z,1.70
2018-07-08T14:19:45.854Z,1.53
2018-07-08T14:22:14.334Z,1.80
2018-07-08T14:24:43.270Z,1.90
2018-07-08T14:27:11.854Z,1.37
2018-07-08T14:29:40.430Z,2.07
2018-07-08T14:32:09.102Z,1.50
2018-07-08T14:34:37.721Z,1.33
2018-07-08T14:37:06.312Z,1.43
2018-07-08T14:39:34.870Z,1.53
2018-07-08T14:42:03.439Z,1.40
2018-07-08T14:44:31.984Z,1.27
2018-07-08T14:47:00.554Z,2.27
2018-07-08T14:49:29.166Z,1.00
2018-07-08T14:51:57.706Z,1.60
2018-07-08T14:54:26.217Z,1.50
2018-07-08T14:56:54.785Z,1.53
2018-07-08T14:59:23.371Z,1.30
2018-07-08T15:01:51.972Z,1.60
2018-07-08T15:04:20.548Z,1.37
2018-07-08T15:06:49.039Z,1.30
2018-07-08T15:09:18.096Z,1.60
2018-07-08T15:11:46.556Z,1.33
2018-07-08T15:14:16.213Z,1.70
2018-07-08T15:16:44.758Z,1.33
2018-07-08T15:19:13.291Z,1.20
2018-07-08T15:21:42.782Z,1.10
2018-07-08T15:24:11.381Z,1.30
2018-07-08T15:26:39.952Z,1.37
2018-07-08T15:29:08.502Z,1.47
2018-07-08T15:31:37.804Z,1.40
2018-07-08T15:34:06.390Z,1.30
2018-07-08T15:36:34.871Z,1.40
2018-07-08T15:39:03.409Z,1.20
2018-07-08T15:41:31.993Z,1.13
2018-07-08T15:44:00.718Z,1.10
2018-07-08T15:46:29.226Z,1.20
2018-07-08T15:48:57.770Z,1.57
2018-07-08T15:51:26.316Z,1.10
2018-07-08T15:53:54.882Z,1.10
2018-07-08T15:56:23.434Z,0.93
2018-07-08T15:58:52.261Z,1.13
2018-07-08T16:01:55.943Z,1.00
2018-07-08T16:04:24.544Z,1.30
2018-07-08T16:06:52.984Z,1.10
2018-07-08T16:09:22.402Z,1.60
2018-07-08T16:11:50.929Z,1.43
2018-07-08T16:14:19.454Z,1.07
2018-07-08T16:16:47.898Z,1.03
2018-07-08T16:19:17.815Z,1.00
2018-07-08T16:21:46.261Z,1.10
2018-07-08T16:24:14.745Z,1.20
2018-07-08T16:26:43.289Z,1.30
2018-07-08T16:29:11.868Z,1.87
2018-07-08T16:31:40.328Z,1.70
2018-07-08T16:34:08.802Z,1.07
2018-07-08T16:36:37.302Z,1.23
2018-07-08T16:39:06.521Z,1.07
2018-07-08T16:41:35.185Z,1.10
2018-07-08T16:44:03.840Z,1.50
2018-07-08T16:46:32.393Z,1.43
2018-07-08T16:49:00.998Z,1.13
2018-07-08T16:51:29.500Z,1.27
2018-07-08T16:54:09.131Z,1.40
2018-07-08T16:56:45.344Z,1.37
2018-07-08T16:59:15.957Z,1.27
2018-07-08T17:01:47.935Z,1.20
2018-07-08T17:04:18.640Z,1.80
2018-07-08T17:06:48.998Z,1.80
2018-07-08T17:09:18.215Z,1.73
2018-07-08T17:11:47.341Z,1.40
2018-07-08T17:14:16.683Z,1.67
2018-07-08T17:16:45.308Z,1.50
2018-07-08T17:19:15.502Z,1.53
2018-07-08T17:21:44.119Z,1.30
2018-07-08T17:24:14.021Z,0.87
2018-07-08T17:26:42.670Z,1.40
2018-07-08T17:29:11.435Z,1.27
2018-07-08T17:31:40.035Z,1.23
2018-07-08T17:34:08.449Z,1.20
2018-07-08T17:36:37.046Z,1.40
2018-07-08T17:39:07.782Z,1.73
2018-07-08T17:41:36.920Z,1.30
2018-07-08T17:44:06.646Z,1.20
2018-07-08T17:46:35.242Z,1.30
2018-07-08T17:49:03.911Z,1.07
2018-07-08T17:51:32.418Z,1.13
2018-07-08T17:54:00.906Z,1.30
2018-07-08T17:56:29.377Z,1.00
2018-07-08T17:58:57.952Z,1.20
2018-07-08T18:01:26.535Z,1.00
2018-07-08T18:03:55.155Z,1.00
2018-07-08T18:06:23.730Z,1.20
2018-07-08T18:08:52.351Z,1.00
2018-07-08T18:11:20.947Z,0.83
2018-07-08T18:13:50.095Z,1.50
2018-07-08T18:16:19.285Z,1.13
2018-07-08T18:18:47.870Z,1.33
2018-07-08T18:21:17.059Z,1.37
2018-07-08T18:23:46.033Z,0.93
2018-07-08T18:26:14.512Z,1.37
2018-07-08T18:28:42.986Z,1.60
2018-07-08T18:31:11.448Z,1.27
2018-07-08T18:33:40.093Z,1.43
2018-07-08T18:36:08.551Z,1.43
2018-07-08T18:38:37.159Z,1.50
2018-07-08T18:41:05.908Z,1.37
2018-07-08T18:43:34.497Z,1.53
2018-07-08T18:46:03.099Z,1.80
2018-07-08T18:48:31.812Z,1.20
2018-07-08T18:51:00.383Z,1.40
2018-07-08T18:53:29.004Z,2.00
2018-07-08T18:55:57.584Z,1.47
2018-07-08T18:58:26.156Z,1.70
2018-07-08T19:00:54.827Z,1.40
2018-07-08T19:03:23.366Z,1.87
2018-07-08T19:05:51.972Z,1.33
2018-07-08T19:08:20.668Z,1.27
2018-07-08T19:10:49.267Z,1.40
2018-07-08T19:13:18.239Z,1.80
2018-07-08T19:15:46.842Z,1.40
2018-07-08T19:18:15.513Z,1.83
2018-07-08T19:20:44.025Z,1.60
2018-07-08T19:23:12.697Z,1.27
2018-07-08T19:25:41.172Z,1.10
2018-07-08T19:28:09.668Z,1.80
2018-07-08T19:30:38.354Z,1.50
2018-07-08T19:33:07.098Z,1.60
2018-07-08T19:35:35.707Z,1.27
2018-07-08T19:38:04.189Z,1.70
2018-07-08T19:40:32.770Z,1.60
2018-07-08T19:43:01.281Z,2.03
2018-07-08T19:45:29.966Z,1.43
2018-07-08T19:47:58.536Z,1.67
2018-07-08T19:50:37.324Z,1.10
2018-07-08T19:53:06.630Z,1.63
2018-07-08T19:55:35.094Z,2.07
2018-07-08T19:58:03.773Z,1.47
2018-07-08T20:00:32.812Z,1.57
2018-07-08T20:03:02.556Z,1.87
2018-07-08T20:05:32.704Z,1.90
2018-07-08T20:08:01.185Z,1.80
2018-07-08T20:10:29.831Z,2.17
2018-07-08T20:12:58.402Z,1.50
2018-07-08T20:15:26.968Z,1.50
2018-07-08T20:17:55.596Z,1.30
2018-07-08T20:20:24.272Z,1.77
2018-07-08T20:22:53.141Z,1.93
2018-07-08T20:25:21.688Z,1.87
2018-07-08T20:28:00.415Z,2.03
2018-07-08T20:30:29.092Z,1.53
2018-07-08T20:32:57.602Z,1.77
2018-07-08T20:35:26.198Z,1.87
2018-07-08T20:37:54.727Z,1.80
2018-07-08T20:40:23.227Z,2.47
2018-07-08T20:42:51.846Z,1.50
2018-07-08T20:45:20.355Z,1.53
2018-07-08T20:47:48.892Z,2.17
2018-07-08T20:50:17.456Z,1.40
2018-07-08T20:52:45.945Z,1.87
2018-07-08T20:55:14.479Z,2.30
2018-07-08T20:57:43.291Z,1.80
2018-07-08T21:00:12.953Z,1.77
2018-07-08T21:02:41.765Z,1.60
2018-07-08T21:05:10.341Z,1.83
2018-07-08T21:07:39.120Z,1.40
2018-07-08T21:10:08.331Z,2.13
2018-07-08T21:12:36.945Z,1.70
2018-07-08T21:15:06.198Z,1.63
2018-07-08T21:17:34.793Z,1.60
2018-07-08T21:20:03.537Z,1.73
2018-07-08T21:22:32.001Z,2.20
2018-07-08T21:25:00.517Z,2.07
2018-07-08T21:27:29.036Z,1.90
2018-07-08T21:30:12.931Z,1.87
2018-07-08T21:32:41.577Z,2.50
2018-07-08T21:35:10.019Z,1.83
2018-07-08T21:37:38.596Z,1.97
2018-07-08T21:40:07.200Z,1.97
2018-07-08T21:42:35.683Z,1.63
2018-07-08T21:45:04.286Z,2.40
2018-07-08T21:47:32.845Z,1.70
2018-07-08T21:50:01.455Z,2.10
2018-07-08T21:52:30.006Z,2.17
2018-07-08T21:54:58.670Z,2.10
2018-07-08T21:57:27.328Z,2.20
2018-07-08T21:59:55.954Z,1.63
2018-07-08T22:02:24.645Z,2.30
2018-07-08T22:04:53.303Z,1.63
2018-07-08T22:07:21.948Z,2.43
2018-07-08T22:09:51.300Z,2.07
2018-07-08T22:12:19.825Z,2.27
2018-07-08T22:14:48.718Z,2.63
2018-07-08T22:17:17.349Z,2.47
2018-07-08T22:19:45.865Z,2.43
2018-07-08T22:22:14.427Z,2.40
2018-07-08T22:24:42.946Z,2.67
2018-07-08T22:27:11.503Z,2.80
2018-07-08T22:29:40.082Z,2.20
2018-07-08T22:32:08.580Z,2.73
2018-07-08T22:35:11.128Z,2.70
2018-07-08T22:37:39.727Z,2.67
2018-07-08T22:40:08.625Z,3.30
2018-07-08T22:42:37.196Z,2.57
2018-07-08T22:45:05.966Z,2.60
2018-07-08T22:47:34.471Z,2.40
2018-07-08T22:50:02.946Z,2.90
2018-07-08T22:52:31.440Z,3.43
2018-07-08T22:55:00.056Z,3.17
2018-07-08T22:57:28.527Z,3.00
2018-07-08T23:00:08.213Z,3.67
2018-07-08T23:02:42.777Z,3.40
2018-07-08T23:05:11.311Z,3.90
2018-07-08T23:07:41.065Z,3.50
2018-07-08T23:10:10.564Z,4.00
2018-07-08T23:12:39.153Z,4.20
2018-07-08T23:15:08.140Z,4.50
2018-07-08T23:17:36.646Z,4.30
2018-07-08T23:20:06.204Z,4.20
2018-07-08T23:22:45.909Z,4.10
2018-07-08T23:25:14.577Z,4.70
2018-07-08T23:27:43.168Z,4.47
2018-07-08T23:30:11.724Z,4.47
2018-07-08T23:32:40.304Z,4.30
2018-07-08T23:35:08.792Z,4.50
2018-07-08T23:37:37.268Z,4.43
2018-07-08T23:40:05.758Z,4.90
2018-07-08T23:42:34.232Z,4.80
2018-07-08T23:45:02.735Z,4.73
2018-07-08T23:47:31.207Z,5.27
2018-07-08T23:49:59.738Z,4.10
2018-07-08T23:52:28.436Z,5.30
2018-07-08T23:55:00.745Z,5.00
2018-07-08T23:57:29.182Z,5.30
2018-07-08T23:59:57.706Z,5.37
